createdAt,value
2018-01-06T00:00:44.857Z,7.80
2018-01-06T00:03:11.405Z,7.80
2018-01-06T00:05:38.006Z,7.80
2018-01-06T00:08:04.569Z,7.70
2018-01-06T00:10:31.110Z,7.60
2018-01-06T00:12:57.873Z,7.60
2018-01-06T00:15:26.185Z,7.60
2018-01-06T00:17:53.176Z,7.60
2018-01-06T00:20:19.867Z,7.60
2018-01-06T00:22:46.543Z,7.60
2018-01-06T00:25:13.701Z,7.60
2018-01-06T00:27:40.353Z,7.60
2018-01-06T00:30:07.106Z,7.50
2018-01-06T00:32:33.652Z,7.50
2018-01-06T00:35:00.303Z,7.50
2018-01-06T00:37:27.057Z,7.50
2018-01-06T00:40:00.950Z,7.50
2018-01-06T00:42:27.629Z,7.50
2018-01-06T00:44:54.553Z,7.40
2018-01-06T00:47:23.572Z,7.40
2018-01-06T00:49:52.585Z,7.40
2018-01-06T00:52:19.208Z,7.40
2018-01-06T00:54:45.888Z,7.40
2018-01-06T00:57:12.539Z,7.40
2018-01-06T00:59:39.130Z,7.40
2018-01-06T01:02:06.246Z,7.40
2018-01-06T01:04:32.872Z,7.40
2018-01-06T01:06:59.546Z,7.50
2018-01-06T01:09:26.398Z,7.50
2018-01-06T01:11:55.302Z,7.50
2018-01-06T01:14:26.217Z,7.50
2018-01-06T01:16:54.340Z,7.50
2018-01-06T01:19:22.188Z,7.40
2018-01-06T01:21:48.932Z,7.40
2018-01-06T01:24:15.723Z,7.40
2018-01-06T01:26:42.576Z,7.40
2018-01-06T01:29:09.171Z,7.30
2018-01-06T01:31:35.773Z,7.40
2018-01-06T01:34:02.372Z,7.30
2018-01-06T01:36:29.025Z,7.30
2018-01-06T01:38:56.010Z,7.30
2018-01-06T01:41:30.628Z,7.30
2018-01-06T01:43:57.306Z,7.30
2018-01-06T01:46:24.984Z,7.30
2018-01-06T01:48:52.870Z,7.30
2018-01-06T01:51:19.605Z,7.30
2018-01-06T01:53:46.244Z,7.40
2018-01-06T01:56:13.029Z,7.40
2018-01-06T01:58:39.767Z,7.30
2018-01-06T02:01:06.353Z,7.30
2018-01-06T02:03:40.261Z,7.40
2018-01-06T02:06:07.213Z,7.30
2018-01-06T02:08:33.761Z,7.30
2018-01-06T02:11:00.491Z,7.30
2018-01-06T02:13:27.201Z,7.20
2018-01-06T02:15:56.555Z,7.20
2018-01-06T02:18:24.695Z,7.10
2018-01-06T02:20:54.181Z,7.10
2018-01-06T02:23:23.203Z,7.10
2018-01-06T02:25:50.631Z,7.10
2018-01-06T02:28:17.553Z,7.10
2018-01-06T02:30:44.542Z,7.10
2018-01-06T02:33:11.190Z,7.10
2018-01-06T02:35:37.808Z,7.10
2018-01-06T02:38:04.387Z,7.10
2018-01-06T02:40:30.956Z,7.10
2018-01-06T02:42:59.023Z,7.00
2018-01-06T02:45:27.205Z,7.10
2018-01-06T02:47:54.813Z,7.20
2018-01-06T02:50:23.776Z,7.20
2018-01-06T02:52:52.225Z,7.20
2018-01-06T02:55:19.125Z,7.30
2018-01-06T02:57:45.840Z,7.20
2018-01-06T03:00:13.036Z,7.20
2018-01-06T03:02:39.649Z,7.10
2018-01-06T03:05:06.216Z,7.10
2018-01-06T03:07:32.749Z,7.00
2018-01-06T03:09:59.647Z,7.00
2018-01-06T03:12:27.497Z,7.00
2018-01-06T03:14:56.113Z,6.90
2018-01-06T03:17:25.096Z,6.90
2018-01-06T03:19:53.631Z,6.90
2018-01-06T03:22:20.466Z,6.90
2018-01-06T03:24:47.589Z,7.00
2018-01-06T03:27:14.229Z,7.00
2018-01-06T03:29:40.921Z,6.90
2018-01-06T03:32:07.558Z,6.90
2018-01-06T03:34:34.126Z,6.80
2018-01-06T03:37:00.768Z,6.80
2018-01-06T03:39:27.605Z,6.70
2018-01-06T03:41:55.523Z,6.70
2018-01-06T03:44:24.813Z,6.60
2018-01-06T03:46:53.975Z,6.60
2018-01-06T03:49:23.717Z,6.60
2018-01-06T03:51:51.155Z,6.50
2018-01-06T03:54:17.864Z,6.60
2018-01-06T03:56:44.509Z,6.50
2018-01-06T03:59:11.217Z,6.50
2018-01-06T04:01:38.682Z,6.50
2018-01-06T04:04:05.251Z,6.50
2018-01-06T04:06:31.809Z,6.50
2018-01-06T04:08:58.598Z,6.50
2018-01-06T04:11:26.053Z,6.40
2018-01-06T04:13:53.044Z,6.40
2018-01-06T04:16:19.958Z,6.40
2018-01-06T04:18:46.914Z,6.30
2018-01-06T04:21:13.654Z,6.30
2018-01-06T04:23:40.269Z,6.30
2018-01-06T04:26:06.937Z,6.20
2018-01-06T04:28:33.514Z,6.20
2018-01-06T04:31:00.266Z,6.20
2018-01-06T04:33:27.633Z,6.30
2018-01-06T04:35:55.099Z,6.30
2018-01-06T04:38:22.395Z,6.40
2018-01-06T04:40:49.320Z,6.40
2018-01-06T04:43:16.028Z,6.40
2018-01-06T04:45:42.786Z,6.40
2018-01-06T04:48:09.856Z,6.30
2018-01-06T04:50:36.505Z,6.30
2018-01-06T04:53:03.153Z,6.30
2018-01-06T04:55:29.946Z,6.30
2018-01-06T04:57:57.407Z,6.40
2018-01-06T05:00:26.450Z,6.40
2018-01-06T05:02:53.517Z,6.30
2018-01-06T05:05:21.254Z,6.20
2018-01-06T05:07:48.239Z,6.20
2018-01-06T05:10:15.669Z,6.20
2018-01-06T05:12:42.992Z,6.20
2018-01-06T05:15:09.657Z,6.20
2018-01-06T05:17:36.230Z,6.10
2018-01-06T05:20:02.814Z,6.00
2018-01-06T05:22:30.028Z,6.00
2018-01-06T05:24:57.202Z,5.90
2018-01-06T05:27:24.686Z,5.80
2018-01-06T05:29:52.958Z,5.80
2018-01-06T05:32:19.810Z,5.80
2018-01-06T05:34:46.437Z,5.70
2018-01-06T05:37:14.247Z,5.70
2018-01-06T05:39:41.178Z,5.60
2018-01-06T05:42:07.738Z,5.60
2018-01-06T05:44:34.391Z,5.60
2018-01-06T05:47:01.013Z,5.50
2018-01-06T05:49:28.413Z,5.50
2018-01-06T05:51:55.877Z,5.40
2018-01-06T05:54:24.530Z,5.50
2018-01-06T05:56:53.120Z,5.50
2018-01-06T05:59:19.994Z,5.50
2018-01-06T06:01:46.677Z,5.50
2018-01-06T06:04:13.513Z,5.50
2018-01-06T06:06:40.209Z,5.60
2018-01-06T06:09:07.142Z,5.60
2018-01-06T06:11:33.753Z,5.60
2018-01-06T06:14:00.944Z,5.60
2018-01-06T06:16:27.806Z,5.70
2018-01-06T06:19:01.265Z,5.70
2018-01-06T06:21:28.775Z,5.70
2018-01-06T06:23:56.031Z,5.80
2018-01-06T06:26:26.491Z,5.80
2018-01-06T06:28:53.955Z,5.80
2018-01-06T06:31:21.998Z,5.80
2018-01-06T06:33:49.573Z,5.80
2018-01-06T06:36:16.251Z,5.80
2018-01-06T06:38:42.781Z,5.80
2018-01-06T06:41:09.417Z,5.70
2018-01-06T06:43:36.097Z,5.70
2018-01-06T06:46:03.046Z,5.60
2018-01-06T06:48:31.660Z,5.60
2018-01-06T06:50:58.718Z,5.60
2018-01-06T06:53:25.349Z,5.60
2018-01-06T06:55:52.013Z,5.60
2018-01-06T06:58:19.166Z,5.60
2018-01-06T07:00:46.197Z,5.60
2018-01-06T07:03:12.849Z,5.60
2018-01-06T07:05:39.497Z,5.60
2018-01-06T07:08:06.145Z,5.50
2018-01-06T07:10:33.337Z,5.50
2018-01-06T07:13:00.299Z,5.50
2018-01-06T07:15:27.893Z,5.50
2018-01-06T07:17:54.762Z,5.50
2018-01-06T07:20:21.782Z,5.60
2018-01-06T07:22:48.841Z,5.60
2018-01-06T07:25:15.569Z,5.60
2018-01-06T07:27:42.132Z,5.60
2018-01-06T07:30:08.683Z,5.60
2018-01-06T07:32:35.434Z,5.60
2018-01-06T07:35:03.325Z,5.50
2018-01-06T07:37:31.706Z,5.50
2018-01-06T07:39:59.375Z,5.50
2018-01-06T07:42:26.128Z,5.50
2018-01-06T07:44:53.698Z,5.50
2018-01-06T07:47:20.633Z,5.60
2018-01-06T07:49:47.277Z,5.60
2018-01-06T07:52:13.806Z,5.60
2018-01-06T07:54:40.749Z,5.60
2018-01-06T07:57:07.692Z,5.50
2018-01-06T07:59:34.933Z,5.50
2018-01-06T08:02:01.990Z,5.50
2018-01-06T08:04:29.384Z,5.50
2018-01-06T08:06:56.078Z,5.50
2018-01-06T08:09:22.684Z,5.40
2018-01-06T08:11:50.127Z,5.50
2018-01-06T08:14:16.976Z,5.50
2018-01-06T08:16:43.961Z,5.60
2018-01-06T08:19:10.685Z,5.60
2018-01-06T08:21:37.231Z,5.60
2018-01-06T08:24:03.850Z,5.70
2018-01-06T08:26:30.690Z,5.90
2018-01-06T08:28:57.681Z,6.00
2018-01-06T08:31:24.697Z,6.20
2018-01-06T08:33:51.395Z,6.20
2018-01-06T08:36:19.625Z,6.20
2018-01-06T08:38:46.232Z,6.30
2018-01-06T08:41:12.792Z,6.40
2018-01-06T08:43:39.331Z,6.60
2018-01-06T08:46:05.945Z,6.70
2018-01-06T08:48:32.837Z,6.80
2018-01-06T08:51:00.606Z,6.70
2018-01-06T08:53:28.182Z,6.70
2018-01-06T08:55:54.889Z,6.70
2018-01-06T08:58:21.461Z,6.70
2018-01-06T09:00:48.123Z,6.70
2018-01-06T09:03:14.688Z,6.70
2018-01-06T09:05:41.293Z,6.80
2018-01-06T09:08:07.943Z,6.90
2018-01-06T09:10:34.789Z,7.00
2018-01-06T09:13:01.678Z,7.10
2018-01-06T09:15:29.042Z,7.20
2018-01-06T09:17:56.025Z,7.30
2018-01-06T09:20:22.622Z,7.30
2018-01-06T09:22:49.400Z,7.40
2018-01-06T09:25:15.998Z,7.30
2018-01-06T09:27:42.567Z,7.30
2018-01-06T09:30:09.216Z,7.40
2018-01-06T09:32:35.794Z,7.50
2018-01-06T09:35:02.522Z,7.60
2018-01-06T09:37:29.508Z,7.60
2018-01-06T09:39:56.197Z,7.70
2018-01-06T09:42:23.125Z,7.80
2018-01-06T09:44:49.960Z,7.80
2018-01-06T09:47:16.917Z,7.90
2018-01-06T09:49:43.567Z,8.00
2018-01-06T09:52:10.217Z,8.10
2018-01-06T09:54:36.781Z,8.10
2018-01-06T09:57:04.237Z,8.00
2018-01-06T09:59:30.914Z,8.00
2018-01-06T10:01:57.741Z,8.00
2018-01-06T10:04:24.681Z,8.10
2018-01-06T10:06:51.273Z,8.10
2018-01-06T10:09:18.302Z,8.30
2018-01-06T10:11:44.884Z,8.30
2018-01-06T10:14:11.829Z,8.30
2018-01-06T10:16:38.409Z,8.30
2018-01-06T10:19:05.325Z,8.40
2018-01-06T10:21:31.946Z,8.40
2018-01-06T10:23:58.649Z,8.50
2018-01-06T10:26:25.325Z,8.50
2018-01-06T10:28:52.004Z,8.60
2018-01-06T10:31:18.663Z,8.80
2018-01-06T10:33:45.242Z,8.90
2018-01-06T10:36:12.192Z,9.00
2018-01-06T10:38:39.137Z,9.00
2018-01-06T10:41:05.682Z,9.00
2018-01-06T10:43:32.624Z,9.10
2018-01-06T10:45:59.884Z,9.10
2018-01-06T10:48:26.489Z,9.10
2018-01-06T10:50:53.179Z,9.20
2018-01-06T10:53:19.828Z,9.30
2018-01-06T10:55:46.738Z,9.30
2018-01-06T10:58:13.435Z,9.30
2018-01-06T11:00:45.929Z,9.40
2018-01-06T11:03:14.108Z,9.50
2018-01-06T11:05:40.730Z,9.60
2018-01-06T11:08:07.282Z,9.60
2018-01-06T11:10:33.929Z,9.60
2018-01-06T11:13:01.326Z,9.80
2018-01-06T11:15:28.161Z,9.90
2018-01-06T11:17:54.822Z,10.00
2018-01-06T11:20:21.470Z,10.10
2018-01-06T11:22:48.215Z,10.10
2018-01-06T11:25:14.872Z,10.20
2018-01-06T11:27:41.524Z,10.30
2018-01-06T11:30:08.070Z,10.30
2018-01-06T11:32:34.694Z,10.40
2018-01-06T11:35:01.370Z,10.20
2018-01-06T11:37:28.837Z,10.40
2018-01-06T11:39:55.895Z,10.60
2018-01-06T11:42:22.472Z,10.60
2018-01-06T11:44:49.474Z,10.80
2018-01-06T11:47:16.152Z,10.80
2018-01-06T11:49:42.801Z,11.00
2018-01-06T11:52:09.337Z,11.00
2018-01-06T11:54:35.910Z,11.00
2018-01-06T11:57:02.654Z,11.10
2018-01-06T11:59:29.403Z,11.10
2018-01-06T12:01:56.047Z,11.10
2018-01-06T12:04:22.799Z,11.00
2018-01-06T12:06:49.364Z,10.90
2018-01-06T12:09:16.001Z,11.10
2018-01-06T12:11:42.617Z,11.00
2018-01-06T12:14:09.270Z,10.90
2018-01-06T12:16:35.993Z,11.00
2018-01-06T12:19:02.979Z,11.00
2018-01-06T12:21:29.656Z,11.00
2018-01-06T12:23:56.692Z,11.10
2018-01-06T12:26:23.360Z,11.10
2018-01-06T12:28:49.906Z,11.20
2018-01-06T12:31:16.528Z,11.40
2018-01-06T12:33:43.148Z,11.50
2018-01-06T12:36:10.181Z,11.40
2018-01-06T12:38:36.959Z,11.40
2018-01-06T12:41:03.666Z,11.40
2018-01-06T12:43:30.257Z,11.50
2018-01-06T12:45:57.069Z,11.70
2018-01-06T12:48:24.046Z,11.70
2018-01-06T12:50:50.582Z,11.70
2018-01-06T12:53:17.178Z,11.90
2018-01-06T12:55:43.840Z,11.90
2018-01-06T12:58:10.373Z,11.80
2018-01-06T13:00:37.043Z,11.60
2018-01-06T13:03:03.694Z,11.60
2018-01-06T13:05:30.442Z,11.60
2018-01-06T13:07:57.299Z,11.70
2018-01-06T13:10:23.870Z,11.70
2018-01-06T13:12:50.489Z,11.80
2018-01-06T13:15:17.534Z,11.90
2018-01-06T13:17:44.217Z,12.10
2018-01-06T13:20:10.846Z,12.10
2018-01-06T13:22:37.413Z,12.00
2018-01-06T13:25:04.175Z,11.90
2018-01-06T13:27:31.028Z,11.80
2018-01-06T13:29:57.786Z,11.70
2018-01-06T13:32:24.810Z,11.50
2018-01-06T13:34:51.382Z,11.50
2018-01-06T13:37:18.038Z,11.50
2018-01-06T13:39:45.095Z,11.50
2018-01-06T13:42:11.655Z,11.50
2018-01-06T13:44:38.216Z,11.30
2018-01-06T13:47:04.989Z,11.30
2018-01-06T13:49:32.108Z,11.50
2018-01-06T13:51:59.035Z,11.50
2018-01-06T13:54:25.707Z,11.50
2018-01-06T13:56:52.324Z,11.50
2018-01-06T13:59:19.518Z,11.50
2018-01-06T14:01:46.089Z,11.40
2018-01-06T14:04:13.001Z,11.10
2018-01-06T14:06:39.641Z,11.10
2018-01-06T14:09:06.221Z,11.00
2018-01-06T14:11:32.941Z,10.80
2018-01-06T14:13:59.801Z,10.70
2018-01-06T14:16:26.399Z,10.60
2018-01-06T14:18:53.316Z,10.50
2018-01-06T14:21:19.944Z,10.50
2018-01-06T14:23:46.729Z,10.40
2018-01-06T14:26:13.351Z,10.30
2018-01-06T14:28:40.029Z,10.30
2018-01-06T14:31:06.678Z,10.20
2018-01-06T14:33:33.301Z,10.20
2018-01-06T14:36:00.369Z,10.20
2018-01-06T14:38:27.349Z,10.10
2018-01-06T14:40:53.962Z,10.00
2018-01-06T14:43:20.639Z,9.80
2018-01-06T14:45:47.205Z,9.70
2018-01-06T14:48:13.805Z,9.70
2018-01-06T14:50:40.487Z,9.60
2018-01-06T14:53:07.065Z,9.50
2018-01-06T14:55:34.129Z,9.40
2018-01-06T14:58:01.254Z,9.30
2018-01-06T15:00:29.078Z,9.30
2018-01-06T15:02:56.190Z,9.10
2018-01-06T15:05:22.802Z,9.10
2018-01-06T15:07:49.453Z,9.00
2018-01-06T15:10:16.139Z,8.80
2018-01-06T15:12:42.717Z,8.70
2018-01-06T15:15:09.717Z,8.50
2018-01-06T15:17:36.269Z,8.50
2018-01-06T15:20:03.500Z,8.40
2018-01-06T15:22:30.192Z,8.40
2018-01-06T15:24:57.272Z,8.20
2018-01-06T15:27:24.256Z,8.20
2018-01-06T15:29:51.245Z,8.10
2018-01-06T15:32:18.136Z,8.10
2018-01-06T15:34:44.730Z,8.10
2018-01-06T15:37:11.433Z,8.00
2018-01-06T15:39:37.981Z,7.90
2018-01-06T15:42:05.245Z,7.90
2018-01-06T15:44:32.000Z,7.80
2018-01-06T15:46:58.960Z,7.80
2018-01-06T15:49:25.957Z,7.60
2018-01-06T15:51:52.660Z,7.60
2018-01-06T15:54:19.617Z,7.60
2018-01-06T15:56:46.265Z,7.50
2018-01-06T15:59:12.916Z,7.40
2018-01-06T16:01:39.565Z,7.30
2018-01-06T16:04:06.145Z,7.30
2018-01-06T16:06:33.279Z,7.20
2018-01-06T16:09:00.742Z,7.10
2018-01-06T16:11:27.474Z,7.10
2018-01-06T16:13:54.491Z,7.00
2018-01-06T16:16:21.407Z,6.90
2018-01-06T16:18:48.018Z,6.90
2018-01-06T16:21:14.610Z,6.90
2018-01-06T16:23:41.153Z,6.80
2018-01-06T16:26:07.717Z,6.80
2018-01-06T16:28:34.449Z,6.70
2018-01-06T16:31:01.108Z,6.70
2018-01-06T16:33:28.157Z,6.60
2018-01-06T16:35:54.789Z,6.50
2018-01-06T16:38:21.418Z,6.50
2018-01-06T16:40:48.014Z,6.40
2018-01-06T16:43:14.981Z,6.40
2018-01-06T16:45:41.989Z,6.30
2018-01-06T16:48:08.566Z,6.30
2018-01-06T16:50:35.145Z,6.20
2018-01-06T16:53:01.837Z,6.20
2018-01-06T16:55:28.526Z,6.10
2018-01-06T16:58:02.202Z,6.10
2018-01-06T17:00:28.809Z,6.10
2018-01-06T17:02:55.805Z,6.00
2018-01-06T17:05:22.353Z,6.00
2018-01-06T17:07:48.937Z,5.90
2018-01-06T17:10:15.503Z,5.90
2018-01-06T17:12:42.433Z,5.90
2018-01-06T17:15:09.009Z,5.90
2018-01-06T17:17:35.629Z,5.90
2018-01-06T17:20:02.210Z,5.80
2018-01-06T17:22:29.174Z,5.70
2018-01-06T17:24:56.113Z,5.70
2018-01-06T17:27:22.738Z,5.70
2018-01-06T17:29:49.326Z,5.60
2018-01-06T17:32:16.276Z,5.50
2018-01-06T17:34:43.198Z,5.50
2018-01-06T17:37:09.825Z,5.50
2018-01-06T17:39:36.434Z,5.60
2018-01-06T17:42:03.346Z,5.70
2018-01-06T17:44:30.311Z,5.70
2018-01-06T17:46:56.897Z,5.60
2018-01-06T17:49:23.445Z,5.60
2018-01-06T17:51:50.460Z,5.40
2018-01-06T17:54:17.317Z,5.40
2018-01-06T17:56:43.965Z,5.30
2018-01-06T17:59:10.541Z,5.20
2018-01-06T18:01:37.162Z,5.20
2018-01-06T18:04:03.785Z,5.20
2018-01-06T18:06:31.454Z,5.30
2018-01-06T18:08:58.197Z,5.30
2018-01-06T18:11:24.878Z,5.30
2018-01-06T18:13:51.497Z,5.20
2018-01-06T18:16:18.094Z,5.10
2018-01-06T18:18:45.093Z,5.10
2018-01-06T18:21:11.688Z,5.10
2018-01-06T18:23:38.409Z,5.10
2018-01-06T18:26:05.191Z,5.10
2018-01-06T18:28:31.845Z,5.00
2018-01-06T18:30:58.770Z,4.90
2018-01-06T18:33:25.417Z,4.70
2018-01-06T18:35:51.998Z,4.60
2018-01-06T18:38:18.706Z,4.60
2018-01-06T18:40:45.262Z,4.60
2018-01-06T18:43:11.941Z,4.50
2018-01-06T18:45:38.517Z,4.50
2018-01-06T18:48:05.138Z,4.40
2018-01-06T18:50:32.065Z,4.30
2018-01-06T18:52:59.448Z,4.30
2018-01-06T18:55:26.082Z,4.30
2018-01-06T18:57:52.863Z,4.30
2018-01-06T19:00:19.437Z,4.30
2018-01-06T19:02:46.029Z,4.30
2018-01-06T19:05:12.593Z,4.30
2018-01-06T19:07:39.154Z,4.30
2018-01-06T19:10:05.802Z,4.30
2018-01-06T19:12:32.394Z,4.30
2018-01-06T19:14:59.514Z,4.30
2018-01-06T19:17:26.113Z,4.30
2018-01-06T19:19:52.680Z,4.30
2018-01-06T19:22:19.356Z,4.20
2018-01-06T19:24:46.414Z,4.10
2018-01-06T19:27:13.282Z,4.10
2018-01-06T19:29:39.890Z,4.10
2018-01-06T19:32:06.670Z,4.10
2018-01-06T19:34:33.421Z,4.00
2018-01-06T19:37:00.398Z,4.00
2018-01-06T19:39:27.024Z,3.90
2018-01-06T19:41:53.601Z,3.90
2018-01-06T19:44:20.170Z,3.80
2018-01-06T19:46:47.150Z,3.80
2018-01-06T19:49:13.826Z,3.80
2018-01-06T19:51:40.786Z,3.80
2018-01-06T19:54:07.321Z,3.80
2018-01-06T19:56:34.086Z,3.90
2018-01-06T19:59:01.147Z,3.80
2018-01-06T20:01:28.007Z,3.80
2018-01-06T20:03:54.925Z,3.70
2018-01-06T20:06:21.575Z,3.80
2018-01-06T20:08:48.253Z,3.80
2018-01-06T20:11:14.857Z,3.70
2018-01-06T20:13:41.389Z,3.70
2018-01-06T20:16:08.297Z,3.70
2018-01-06T20:18:34.925Z,3.70
2018-01-06T20:21:01.517Z,3.70
2018-01-06T20:23:28.070Z,3.60
2018-01-06T20:25:55.617Z,3.60
2018-01-06T20:28:22.189Z,3.60
2018-01-06T20:30:48.813Z,3.60
2018-01-06T20:33:15.581Z,3.60
2018-01-06T20:35:42.216Z,3.60
2018-01-06T20:38:08.837Z,3.60
2018-01-06T20:40:35.429Z,3.70
2018-01-06T20:43:02.193Z,3.60
2018-01-06T20:45:28.938Z,3.50
2018-01-06T20:47:56.078Z,3.50
2018-01-06T20:50:22.697Z,3.50
2018-01-06T20:52:49.242Z,3.40
2018-01-06T20:55:15.922Z,3.30
2018-01-06T20:57:42.501Z,3.30
2018-01-06T21:00:09.089Z,3.20
2018-01-06T21:02:35.689Z,3.20
2018-01-06T21:05:02.622Z,3.20
2018-01-06T21:07:29.250Z,3.10
2018-01-06T21:09:55.920Z,3.10
2018-01-06T21:12:22.542Z,3.00
2018-01-06T21:14:49.077Z,3.00
2018-01-06T21:17:15.972Z,3.00
2018-01-06T21:19:42.593Z,2.90
2018-01-06T21:22:09.241Z,2.90
2018-01-06T21:24:36.021Z,2.80
2018-01-06T21:27:02.882Z,2.80
2018-01-06T21:29:29.936Z,2.70
2018-01-06T21:31:56.690Z,2.70
2018-01-06T21:34:24.337Z,2.70
2018-01-06T21:36:51.114Z,2.80
2018-01-06T21:39:17.966Z,2.70
2018-01-06T21:41:44.532Z,2.60
2018-01-06T21:44:11.142Z,2.50
2018-01-06T21:46:37.812Z,2.50
2018-01-06T21:49:04.462Z,2.50
2018-01-06T21:51:31.537Z,2.50
2018-01-06T21:53:58.670Z,2.50
2018-01-06T21:56:25.301Z,2.50
2018-01-06T21:58:51.841Z,2.60
2018-01-06T22:01:18.498Z,2.60
2018-01-06T22:03:45.150Z,2.60
2018-01-06T22:06:11.797Z,2.60
2018-01-06T22:08:38.476Z,2.50
2018-01-06T22:11:05.101Z,2.50
2018-01-06T22:13:31.895Z,2.50
2018-01-06T22:15:58.628Z,2.40
2018-01-06T22:18:25.353Z,2.40
2018-01-06T22:20:52.028Z,2.30
2018-01-06T22:23:19.089Z,2.20
2018-01-06T22:25:45.710Z,2.20
2018-01-06T22:28:12.358Z,2.20
2018-01-06T22:30:39.009Z,2.20
2018-01-06T22:33:05.891Z,2.10
2018-01-06T22:35:32.846Z,2.10
2018-01-06T22:37:59.729Z,2.20
2018-01-06T22:40:26.975Z,2.20
2018-01-06T22:42:54.024Z,2.20
2018-01-06T22:45:20.733Z,2.20
2018-01-06T22:47:47.407Z,2.20
2018-01-06T22:50:14.393Z,2.30
2018-01-06T22:52:41.358Z,2.20
2018-01-06T22:55:07.945Z,2.20
2018-01-06T22:57:34.609Z,2.10
2018-01-06T23:00:02.433Z,2.10
2018-01-06T23:02:29.689Z,2.10
2018-01-06T23:04:56.297Z,2.10
2018-01-06T23:07:22.921Z,2.00
2018-01-06T23:09:50.040Z,2.00
2018-01-06T23:12:16.585Z,2.00
2018-01-06T23:14:43.161Z,2.00
2018-01-06T23:17:09.778Z,2.00
2018-01-06T23:19:36.330Z,2.00
2018-01-06T23:22:02.949Z,2.00
2018-01-06T23:24:30.239Z,2.00
2018-01-06T23:26:57.437Z,1.90
2018-01-06T23:29:24.356Z,1.90
2018-01-06T23:31:51.318Z,1.90
2018-01-06T23:34:17.937Z,1.90
2018-01-06T23:36:44.612Z,2.00
2018-01-06T23:39:11.233Z,1.90
2018-01-06T23:41:37.824Z,1.90
2018-01-06T23:44:04.490Z,1.90
2018-01-06T23:46:31.722Z,1.90
2018-01-06T23:48:59.702Z,1.90
2018-01-06T23:51:28.608Z,2.00
2018-01-06T23:53:55.444Z,2.00
2018-01-06T23:56:22.043Z,2.10
2018-01-06T23:58:48.938Z,2.00
